Terminal Aerodrome Forecast
Issued by NWS San Angelo, TX

Home | Current Version | Previous Version | Text Only | Print | Product List | Glossary On
Versions: 1 2 3 4 5 6 7 8 9 10 11 12 13 14 15 16 17 18
000
FTUS44 KSJT 300000 AAA
TAFABI
TAF AMD
KABI 300056Z 3001/3024 11010KT P6SM -SHRA VCTS BKN060CB
     FM300230 12008KT P6SM BKN120
     FM300600 17011KT P6SM BKN200
     FM301500 19016G24KT P6SM SCT100=

USA.gov is the U.S. government's official web portal to all federal, state and local government web resources and services.